createdAt,value
2023-01-04T00:00:51.549Z,1021.25
2023-01-04T00:01:51.467Z,1021.26
2023-01-04T00:02:51.684Z,1021.26
2023-01-04T00:03:51.727Z,1021.24
2023-01-04T00:04:51.420Z,1021.20
2023-01-04T00:05:51.407Z,1021.17
2023-01-04T00:06:51.412Z,1021.15
2023-01-04T00:07:51.388Z,1021.12
2023-01-04T00:08:51.398Z,1021.11
2023-01-04T00:09:51.366Z,1021.09
2023-01-04T00:10:51.361Z,1021.04
2023-01-04T00:11:51.359Z,1020.99
2023-01-04T00:12:51.353Z,1020.96
2023-01-04T00:13:51.323Z,1020.92
2023-01-04T00:14:51.311Z,1020.93
2023-01-04T00:15:51.402Z,1020.91
2023-01-04T00:16:51.368Z,1020.88
2023-01-04T00:17:51.280Z,1020.86
2023-01-04T00:18:51.269Z,1020.86
2023-01-04T00:19:51.272Z,1020.87
2023-01-04T00:20:51.249Z,1020.89
2023-01-04T00:21:51.247Z,1020.88
2023-01-04T00:22:51.227Z,1020.85
2023-01-04T00:23:51.225Z,1020.83
2023-01-04T00:24:51.207Z,1020.81
2023-01-04T00:25:51.197Z,1020.82
2023-01-04T00:26:51.203Z,1020.78
2023-01-04T00:27:51.175Z,1020.75
2023-01-04T00:28:54.425Z,1020.73
2023-01-04T00:29:51.151Z,1020.75
2023-01-04T00:30:51.187Z,1020.67
2023-01-04T00:31:51.185Z,1020.70
2023-01-04T00:32:51.127Z,1020.67
2023-01-04T00:33:51.111Z,1020.69
2023-01-04T00:34:51.097Z,1020.63
2023-01-04T00:35:51.105Z,1020.51
2023-01-04T00:36:51.102Z,1020.51
2023-01-04T00:37:52.273Z,1020.49
2023-01-04T00:38:51.069Z,1020.47
2023-01-04T00:39:51.057Z,1020.45
2023-01-04T00:40:51.029Z,1020.43
2023-01-04T00:42:00.096Z,1020.44
2023-01-04T00:42:52.012Z,1020.43
2023-01-04T00:43:51.014Z,1020.35
2023-01-04T00:44:50.990Z,1020.38
2023-01-04T00:45:51.070Z,1020.33
2023-01-04T00:46:51.061Z,1020.30
2023-01-04T00:47:50.957Z,1020.31
2023-01-04T00:48:53.996Z,1020.33
2023-01-04T00:49:51.935Z,1020.32
2023-01-04T00:50:50.927Z,1020.32
2023-01-04T00:51:50.928Z,1020.26
2023-01-04T00:52:50.916Z,1020.26
2023-01-04T00:53:50.896Z,1020.23
2023-01-04T00:54:50.887Z,1020.22
2023-01-04T00:55:50.904Z,1020.18
2023-01-04T00:56:50.886Z,1020.14
2023-01-04T00:57:50.882Z,1020.12
2023-01-04T00:58:50.843Z,1020.07
2023-01-04T00:59:50.833Z,1020.02
2023-01-04T01:00:50.825Z,1019.98
2023-01-04T01:01:51.095Z,1019.97
2023-01-04T01:02:51.063Z,1019.89
2023-01-04T01:03:50.889Z,1019.86
2023-01-04T01:04:50.775Z,1019.80
2023-01-04T01:05:50.776Z,1019.82
2023-01-04T01:06:50.759Z,1019.85
2023-01-04T01:07:50.778Z,1019.84
2023-01-04T01:08:50.732Z,1019.84
2023-01-04T01:09:50.753Z,1019.88
2023-01-04T01:10:50.720Z,1019.88
2023-01-04T01:11:50.701Z,1019.90
2023-01-04T01:12:50.719Z,1019.90
2023-01-04T01:13:50.685Z,1019.90
2023-01-04T01:14:52.797Z,1019.92
2023-01-04T01:15:50.783Z,1019.93
2023-01-04T01:16:56.407Z,1019.92
2023-01-04T01:17:51.653Z,1019.93
2023-01-04T01:18:50.628Z,1019.95
2023-01-04T01:19:50.623Z,1019.95
2023-01-04T01:20:50.620Z,1019.95
2023-01-04T01:21:50.639Z,1019.95
2023-01-04T01:22:50.612Z,1019.92
2023-01-04T01:23:50.591Z,1019.96
2023-01-04T01:24:50.559Z,1019.91
2023-01-04T01:25:50.559Z,1019.95
2023-01-04T01:26:50.535Z,1019.86
2023-01-04T01:27:50.558Z,1019.89
2023-01-04T01:28:50.521Z,1019.89
2023-01-04T01:29:50.518Z,1019.84
2023-01-04T01:30:50.553Z,1019.83
2023-01-04T01:31:50.605Z,1019.84
2023-01-04T01:32:50.492Z,1019.85
2023-01-04T01:33:50.479Z,1019.88
2023-01-04T01:34:50.459Z,1019.86
2023-01-04T01:35:50.446Z,1019.83
2023-01-04T01:36:50.434Z,1019.83
2023-01-04T01:37:50.448Z,1019.91
2023-01-04T01:38:50.414Z,1019.93
2023-01-04T01:39:50.480Z,1019.91
2023-01-04T01:40:50.393Z,1019.92
2023-01-04T01:41:50.387Z,1019.93
2023-01-04T01:42:50.380Z,1019.91
2023-01-04T01:43:50.361Z,1019.90
2023-01-04T01:44:50.348Z,1019.83
2023-01-04T01:45:50.348Z,1019.89
2023-01-04T01:46:50.431Z,1019.80
2023-01-04T01:47:50.330Z,1019.80
2023-01-04T01:48:50.307Z,1019.77
2023-01-04T01:49:50.348Z,1019.79
2023-01-04T01:50:50.375Z,1019.79
2023-01-04T01:51:50.284Z,1019.84
2023-01-04T01:52:50.301Z,1019.84
2023-01-04T01:53:50.271Z,1019.81
2023-01-04T01:54:50.244Z,1019.83
2023-01-04T01:55:50.261Z,1019.83
2023-01-04T01:56:50.217Z,1019.89
2023-01-04T01:57:50.223Z,1019.88
2023-01-04T01:58:50.199Z,1019.86
2023-01-04T01:59:50.186Z,1019.85
2023-01-04T02:00:50.176Z,1019.86
2023-01-04T02:01:50.650Z,1019.84
2023-01-04T02:02:50.457Z,1019.83
2023-01-04T02:03:50.226Z,1019.83
2023-01-04T02:04:50.133Z,1019.76
2023-01-04T02:05:50.125Z,1019.78
2023-01-04T02:06:50.113Z,1019.74
2023-01-04T02:07:50.116Z,1019.73
2023-01-04T02:08:50.086Z,1019.68
2023-01-04T02:09:50.088Z,1019.66
2023-01-04T02:10:50.069Z,1019.65
2023-01-04T02:11:50.103Z,1019.65
2023-01-04T02:12:50.070Z,1019.61
2023-01-04T02:13:50.038Z,1019.60
2023-01-04T02:14:50.026Z,1019.58
2023-01-04T02:15:50.113Z,1019.55
2023-01-04T02:16:50.003Z,1019.45
2023-01-04T02:17:50.013Z,1019.43
2023-01-04T02:18:49.991Z,1019.36
2023-01-04T02:19:49.976Z,1019.33
2023-01-04T02:20:49.971Z,1019.31
2023-01-04T02:21:49.953Z,1019.24
2023-01-04T02:22:49.954Z,1019.18
2023-01-04T02:23:49.935Z,1019.16
2023-01-04T02:24:49.943Z,1019.02
2023-01-04T02:25:49.925Z,1018.97
2023-01-04T02:26:49.895Z,1018.95
2023-01-04T02:27:50.064Z,1018.85
2023-01-04T02:28:49.876Z,1018.86
2023-01-04T02:29:49.866Z,1018.78
2023-01-04T02:30:49.891Z,1018.83
2023-01-04T02:31:49.959Z,1018.75
2023-01-04T02:32:49.844Z,1018.71
2023-01-04T02:33:49.823Z,1018.72
2023-01-04T02:34:54.802Z,1018.68
2023-01-04T02:35:50.806Z,1018.75
2023-01-04T02:36:49.797Z,1018.73
2023-01-04T02:37:49.797Z,1018.72
2023-01-04T02:38:49.771Z,1018.72
2023-01-04T02:39:49.767Z,1018.75
2023-01-04T02:40:49.747Z,1018.61
2023-01-04T02:41:49.761Z,1018.66
2023-01-04T02:42:49.738Z,1018.61
2023-01-04T02:43:49.731Z,1018.58
2023-01-04T02:44:49.713Z,1018.52
2023-01-04T02:45:49.692Z,1018.51
2023-01-04T02:46:49.726Z,1018.46
2023-01-04T02:47:49.714Z,1018.40
2023-01-04T02:48:49.674Z,1018.42
2023-01-04T02:49:49.661Z,1018.37
2023-01-04T02:50:49.683Z,1018.33
2023-01-04T02:51:49.631Z,1018.35
2023-01-04T02:52:49.636Z,1018.35
2023-01-04T02:53:49.621Z,1018.36
2023-01-04T02:54:49.600Z,1018.39
2023-01-04T02:55:49.587Z,1018.42
2023-01-04T02:56:49.578Z,1018.46
2023-01-04T02:57:49.578Z,1018.46
2023-01-04T02:58:49.553Z,1018.51
2023-01-04T02:59:49.563Z,1018.49
2023-01-04T03:00:49.537Z,1018.53
2023-01-04T03:01:49.687Z,1018.50
2023-01-04T03:02:49.662Z,1018.40
2023-01-04T03:03:49.602Z,1018.38
2023-01-04T03:04:49.490Z,1018.30
2023-01-04T03:05:49.481Z,1018.29
2023-01-04T03:06:49.471Z,1018.25
2023-01-04T03:07:49.471Z,1018.21
2023-01-04T03:08:49.447Z,1018.27
2023-01-04T03:09:49.436Z,1018.20
2023-01-04T03:10:49.429Z,1018.18
2023-01-04T03:11:49.416Z,1018.21
2023-01-04T03:12:49.423Z,1018.22
2023-01-04T03:13:49.410Z,1018.15
2023-01-04T03:14:49.383Z,1018.17
2023-01-04T03:15:49.425Z,1018.08
2023-01-04T03:16:49.360Z,1018.13
2023-01-04T03:17:49.369Z,1018.05
2023-01-04T03:18:49.340Z,1018.05
2023-01-04T03:19:49.331Z,1018.02
2023-01-04T03:20:49.322Z,1018.06
2023-01-04T03:21:49.311Z,1018.02
2023-01-04T03:22:49.320Z,1017.98
2023-01-04T03:23:49.293Z,1018.01
2023-01-04T03:24:49.289Z,1018.02
2023-01-04T03:25:49.275Z,1018.00
2023-01-04T03:26:49.265Z,1017.99
2023-01-04T03:27:49.257Z,1017.99
2023-01-04T03:28:49.239Z,1017.97
2023-01-04T03:29:49.221Z,1017.98
2023-01-04T03:30:49.214Z,1017.90
2023-01-04T03:31:49.330Z,1017.88
2023-01-04T03:32:49.208Z,1017.86
2023-01-04T03:33:49.188Z,1017.80
2023-01-04T03:34:49.180Z,1017.82
2023-01-04T03:35:49.166Z,1017.77
2023-01-04T03:36:49.152Z,1017.79
2023-01-04T03:37:49.157Z,1017.73
2023-01-04T03:38:49.125Z,1017.73
2023-01-04T03:39:49.115Z,1017.75
2023-01-04T03:40:49.103Z,1017.69
2023-01-04T03:41:49.094Z,1017.73
2023-01-04T03:42:49.097Z,1017.68
2023-01-04T03:43:49.073Z,1017.67
2023-01-04T03:44:49.067Z,1017.65
2023-01-04T03:45:49.049Z,1017.62
2023-01-04T03:46:49.115Z,1017.65
2023-01-04T03:47:49.072Z,1017.59
2023-01-04T03:48:49.041Z,1017.47
2023-01-04T03:49:49.008Z,1017.51
2023-01-04T03:50:49.001Z,1017.49
2023-01-04T03:51:48.984Z,1017.46
2023-01-04T03:52:48.972Z,1017.36
2023-01-04T03:53:48.976Z,1017.44
2023-01-04T03:54:48.950Z,1017.38
2023-01-04T03:55:48.941Z,1017.38
2023-01-04T03:56:48.928Z,1017.39
2023-01-04T03:57:48.920Z,1017.36
2023-01-04T03:58:48.928Z,1017.38
2023-01-04T03:59:48.906Z,1017.29
2023-01-04T04:00:48.904Z,1017.30
2023-01-04T04:01:49.037Z,1017.20
2023-01-04T04:02:48.866Z,1017.17
2023-01-04T04:03:48.943Z,1017.16
2023-01-04T04:04:48.851Z,1017.11
2023-01-04T04:05:48.841Z,1017.14
2023-01-04T04:06:48.830Z,1017.15
2023-01-04T04:07:48.813Z,1017.18
2023-01-04T04:08:48.810Z,1017.24
2023-01-04T04:09:48.803Z,1017.22
2023-01-04T04:10:48.788Z,1017.17
2023-01-04T04:11:48.799Z,1017.08
2023-01-04T04:12:48.845Z,1017.05
2023-01-04T04:13:48.771Z,1017.05
2023-01-04T04:14:48.738Z,1017.05
2023-01-04T04:15:48.734Z,1017.05
2023-01-04T04:16:48.776Z,1017.01
2023-01-04T04:17:48.703Z,1016.94
2023-01-04T04:18:48.702Z,1016.91
2023-01-04T04:19:48.701Z,1016.90
2023-01-04T04:20:48.674Z,1016.83
2023-01-04T04:21:48.660Z,1016.84
2023-01-04T04:22:48.649Z,1016.81
2023-01-04T04:23:48.646Z,1016.78
2023-01-04T04:24:48.627Z,1016.77
2023-01-04T04:25:48.662Z,1016.75
2023-01-04T04:26:48.609Z,1016.73
2023-01-04T04:27:48.601Z,1016.67
2023-01-04T04:28:48.600Z,1016.63
2023-01-04T04:29:48.576Z,1016.63
2023-01-04T04:30:48.561Z,1016.60
2023-01-04T04:31:48.698Z,1016.66
2023-01-04T04:32:48.542Z,1016.58
2023-01-04T04:33:48.548Z,1016.59
2023-01-04T04:34:48.520Z,1016.59
2023-01-04T04:35:48.527Z,1016.51
2023-01-04T04:36:48.502Z,1016.47
2023-01-04T04:37:48.489Z,1016.46
2023-01-04T04:38:48.483Z,1016.41
2023-01-04T04:39:48.473Z,1016.41
2023-01-04T04:40:48.454Z,1016.40
2023-01-04T04:41:48.449Z,1016.33
2023-01-04T04:42:48.433Z,1016.28
2023-01-04T04:43:48.430Z,1016.23
2023-01-04T04:44:48.411Z,1016.29
2023-01-04T04:45:48.472Z,1016.25
2023-01-04T04:46:48.397Z,1016.26
2023-01-04T04:47:48.383Z,1016.20
2023-01-04T04:48:48.380Z,1016.19
2023-01-04T04:49:48.358Z,1016.12
2023-01-04T04:50:48.367Z,1016.14
2023-01-04T04:51:48.375Z,1016.07
2023-01-04T04:52:54.032Z,1016.06
2023-01-04T04:53:49.334Z,1015.96
2023-01-04T04:54:48.326Z,1015.93
2023-01-04T04:55:48.291Z,1015.89
2023-01-04T04:56:48.306Z,1015.87
2023-01-04T04:57:48.273Z,1015.84
2023-01-04T04:58:48.285Z,1015.84
2023-01-04T04:59:48.247Z,1015.85
2023-01-04T05:00:48.302Z,1015.76
2023-01-04T05:01:56.106Z,1015.80
2023-01-04T05:02:48.434Z,1015.77
2023-01-04T05:03:48.219Z,1015.73
2023-01-04T05:04:48.201Z,1015.62
2023-01-04T05:05:48.185Z,1015.63
2023-01-04T05:06:48.184Z,1015.62
2023-01-04T05:07:48.183Z,1015.62
2023-01-04T05:08:48.167Z,1015.56
2023-01-04T05:09:48.144Z,1015.63
2023-01-04T05:10:48.140Z,1015.53
2023-01-04T05:11:48.129Z,1015.54
2023-01-04T05:12:51.724Z,1015.58
2023-01-04T05:13:49.110Z,1015.54
2023-01-04T05:14:48.088Z,1015.49
2023-01-04T05:15:48.074Z,1015.47
2023-01-04T05:16:48.179Z,1015.47
2023-01-04T05:17:48.987Z,1015.40
2023-01-04T05:18:55.110Z,1015.34
2023-01-04T05:19:48.031Z,1015.34
2023-01-04T05:20:48.026Z,1015.32
2023-01-04T05:21:48.016Z,1015.27
2023-01-04T05:22:48.002Z,1015.25
2023-01-04T05:23:48.019Z,1015.22
2023-01-04T05:24:47.980Z,1015.19
2023-01-04T05:25:47.967Z,1015.20
2023-01-04T05:26:47.977Z,1015.18
2023-01-04T05:27:47.948Z,1015.14
2023-01-04T05:28:53.387Z,1015.09
2023-01-04T05:29:48.923Z,1015.07
2023-01-04T05:30:47.912Z,1015.01
2023-01-04T05:31:55.537Z,1015.01
2023-01-04T05:32:47.901Z,1015.01
2023-01-04T05:33:47.896Z,1014.99
2023-01-04T05:34:47.871Z,1014.91
2023-01-04T05:35:47.861Z,1014.90
2023-01-04T05:36:47.850Z,1014.78
2023-01-04T05:37:47.836Z,1014.85
2023-01-04T05:38:47.851Z,1014.76
2023-01-04T05:39:47.840Z,1014.77
2023-01-04T05:40:47.810Z,1014.83
2023-01-04T05:41:47.802Z,1014.73
2023-01-04T05:42:47.793Z,1014.67
2023-01-04T05:43:47.787Z,1014.57
2023-01-04T05:44:47.777Z,1014.60
2023-01-04T05:45:47.798Z,1014.61
2023-01-04T05:46:47.744Z,1014.53
2023-01-04T05:47:47.736Z,1014.53
2023-01-04T05:48:47.764Z,1014.52
2023-01-04T05:49:55.462Z,1014.48
2023-01-04T05:50:55.487Z,1014.41
2023-01-04T05:51:47.692Z,1014.38
2023-01-04T05:52:47.678Z,1014.45
2023-01-04T05:53:47.683Z,1014.47
2023-01-04T05:54:47.655Z,1014.43
2023-01-04T05:55:47.663Z,1014.39
2023-01-04T05:56:47.633Z,1014.42
2023-01-04T05:57:47.634Z,1014.41
2023-01-04T05:58:47.626Z,1014.34
2023-01-04T05:59:47.601Z,1014.34
2023-01-04T06:00:47.594Z,1014.29
2023-01-04T06:01:47.699Z,1014.22
2023-01-04T06:02:47.756Z,1014.23
2023-01-04T06:03:47.695Z,1014.19
2023-01-04T06:04:51.590Z,1014.18
2023-01-04T06:05:48.534Z,1014.23
2023-01-04T06:06:55.519Z,1014.25
2023-01-04T06:07:47.512Z,1014.17
2023-01-04T06:08:47.546Z,1014.19
2023-01-04T06:09:55.508Z,1014.13
2023-01-04T06:10:47.519Z,1014.12
2023-01-04T06:11:47.488Z,1014.11
2023-01-04T06:12:47.461Z,1014.08
2023-01-04T06:13:47.460Z,1014.05
2023-01-04T06:14:47.440Z,1014.03
2023-01-04T06:15:47.434Z,1014.06
2023-01-04T06:16:47.580Z,1014.02
2023-01-04T06:17:47.406Z,1013.99
2023-01-04T06:18:47.408Z,1014.00
2023-01-04T06:19:47.389Z,1013.93
2023-01-04T06:20:47.374Z,1013.96
2023-01-04T06:21:47.363Z,1013.94
2023-01-04T06:22:47.355Z,1013.98
2023-01-04T06:23:47.352Z,1013.90
2023-01-04T06:24:47.335Z,1013.87
2023-01-04T06:25:47.321Z,1013.81
2023-01-04T06:26:47.314Z,1013.80
2023-01-04T06:27:47.319Z,1013.76
2023-01-04T06:28:47.299Z,1013.71
2023-01-04T06:29:47.285Z,1013.70
2023-01-04T06:30:47.295Z,1013.70
2023-01-04T06:31:47.269Z,1013.66
2023-01-04T06:32:47.249Z,1013.63
2023-01-04T06:33:47.249Z,1013.63
2023-01-04T06:34:47.223Z,1013.60
2023-01-04T06:35:47.212Z,1013.63
2023-01-04T06:36:47.205Z,1013.57
2023-01-04T06:37:47.188Z,1013.54
2023-01-04T06:38:47.195Z,1013.54
2023-01-04T06:39:55.087Z,1013.52
2023-01-04T06:40:47.164Z,1013.46
2023-01-04T06:41:47.150Z,1013.46
2023-01-04T06:42:47.178Z,1013.51
2023-01-04T06:43:47.292Z,1013.41
2023-01-04T06:44:47.160Z,1013.35
2023-01-04T06:45:47.176Z,1013.36
2023-01-04T06:46:47.136Z,1013.36
2023-01-04T06:47:47.088Z,1013.34
2023-01-04T06:48:47.187Z,1013.33
2023-01-04T06:49:47.080Z,1013.39
2023-01-04T06:50:47.057Z,1013.30
2023-01-04T06:51:47.044Z,1013.36
2023-01-04T06:52:47.035Z,1013.17
2023-01-04T06:53:47.022Z,1013.27
2023-01-04T06:54:54.103Z,1013.22
2023-01-04T06:55:46.999Z,1013.20
2023-01-04T06:56:46.996Z,1013.23
2023-01-04T06:57:46.984Z,1013.16
2023-01-04T06:58:46.985Z,1013.14
2023-01-04T06:59:46.988Z,1013.11
2023-01-04T07:00:46.948Z,1013.10
2023-01-04T07:01:47.023Z,1013.09
2023-01-04T07:03:13.829Z,1013.06
2023-01-04T07:03:47.912Z,1013.08
2023-01-04T07:04:47.059Z,1013.05
2023-01-04T07:05:46.896Z,1013.04
2023-01-04T07:06:46.882Z,1013.06
2023-01-04T07:07:46.900Z,1013.05
2023-01-04T07:08:46.860Z,1012.99
2023-01-04T07:09:46.870Z,1012.91
2023-01-04T07:10:46.838Z,1012.96
2023-01-04T07:11:46.834Z,1012.89
2023-01-04T07:12:46.814Z,1012.90
2023-01-04T07:13:46.805Z,1012.93
2023-01-04T07:14:46.822Z,1012.92
2023-01-04T07:15:46.908Z,1012.91
2023-01-04T07:16:46.930Z,1012.88
2023-01-04T07:17:46.758Z,1012.92
2023-01-04T07:18:46.760Z,1012.88
2023-01-04T07:19:46.764Z,1012.88
2023-01-04T07:20:46.728Z,1012.85
2023-01-04T07:21:46.720Z,1012.75
2023-01-04T07:22:46.704Z,1012.75
2023-01-04T07:23:46.739Z,1012.68
2023-01-04T07:24:46.704Z,1012.66
2023-01-04T07:25:46.673Z,1012.65
2023-01-04T07:26:46.665Z,1012.67
2023-01-04T07:27:46.649Z,1012.62
2023-01-04T07:28:46.646Z,1012.60
2023-01-04T07:29:46.642Z,1012.63
2023-01-04T07:30:46.687Z,1012.58
2023-01-04T07:31:46.622Z,1012.58
2023-01-04T07:32:46.597Z,1012.53
2023-01-04T07:33:46.587Z,1012.50
2023-01-04T07:34:46.609Z,1012.50
2023-01-04T07:35:46.566Z,1012.50
2023-01-04T07:36:46.555Z,1012.55
2023-01-04T07:37:47.942Z,1012.51
2023-01-04T07:38:46.535Z,1012.50
2023-01-04T07:39:46.532Z,1012.48
2023-01-04T07:40:56.476Z,1012.52
2023-01-04T07:41:47.510Z,1012.40
2023-01-04T07:42:46.490Z,1012.47
2023-01-04T07:43:46.477Z,1012.45
2023-01-04T07:44:46.481Z,1012.38
2023-01-04T07:45:46.488Z,1012.42
2023-01-04T07:46:46.532Z,1012.43
2023-01-04T07:47:46.482Z,1012.41
2023-01-04T07:48:46.423Z,1012.33
2023-01-04T07:49:46.453Z,1012.28
2023-01-04T07:50:46.404Z,1012.30
2023-01-04T07:51:46.403Z,1012.29
2023-01-04T07:52:46.417Z,1012.25
2023-01-04T07:53:46.374Z,1012.22
2023-01-04T07:54:46.385Z,1012.22
2023-01-04T07:55:46.354Z,1012.22
2023-01-04T07:56:46.335Z,1012.19
2023-01-04T07:57:46.337Z,1012.13
2023-01-04T07:58:46.314Z,1012.09
2023-01-04T07:59:46.592Z,1012.03
2023-01-04T08:00:46.291Z,1012.07
2023-01-04T08:01:46.428Z,1012.00
2023-01-04T08:02:46.445Z,1012.05
2023-01-04T08:03:46.323Z,1012.01
2023-01-04T08:04:46.370Z,1012.04
2023-01-04T08:05:46.237Z,1011.91
2023-01-04T08:06:46.229Z,1011.93
2023-01-04T08:07:46.210Z,1011.86
2023-01-04T08:08:46.203Z,1011.88
2023-01-04T08:09:46.202Z,1011.80
2023-01-04T08:10:46.183Z,1011.75
2023-01-04T08:11:46.172Z,1011.73
2023-01-04T08:12:46.161Z,1011.74
2023-01-04T08:13:46.146Z,1011.63
2023-01-04T08:14:46.154Z,1011.62
2023-01-04T08:15:46.174Z,1011.58
2023-01-04T08:16:46.120Z,1011.59
2023-01-04T08:17:46.103Z,1011.58
2023-01-04T08:18:46.108Z,1011.59
2023-01-04T08:19:46.112Z,1011.56
2023-01-04T08:20:46.072Z,1011.50
2023-01-04T08:21:46.072Z,1011.47
2023-01-04T08:22:46.060Z,1011.46
2023-01-04T08:23:46.041Z,1011.45
2023-01-04T08:24:46.049Z,1011.50
2023-01-04T08:25:46.014Z,1011.45
2023-01-04T08:26:46.018Z,1011.42
2023-01-04T08:27:45.996Z,1011.43
2023-01-04T08:28:45.989Z,1011.43
2023-01-04T08:29:46.027Z,1011.40
2023-01-04T08:30:45.995Z,1011.41
2023-01-04T08:31:46.047Z,1011.40
2023-01-04T08:32:45.942Z,1011.44
2023-01-04T08:33:45.927Z,1011.52
2023-01-04T08:34:45.931Z,1011.46
2023-01-04T08:35:45.926Z,1011.51
2023-01-04T08:36:45.901Z,1011.41
2023-01-04T08:37:45.883Z,1011.50
2023-01-04T08:39:02.022Z,1011.36
2023-01-04T08:39:49.177Z,1011.40
2023-01-04T08:40:59.820Z,1011.39
2023-01-04T08:41:57.844Z,1011.37
2023-01-04T08:42:46.829Z,1011.35
2023-01-04T08:43:45.838Z,1011.37
2023-01-04T08:44:45.826Z,1011.36
2023-01-04T08:45:45.799Z,1011.33
2023-01-04T08:46:45.925Z,1011.26
2023-01-04T08:47:45.780Z,1011.30
2023-01-04T08:48:45.763Z,1011.28
2023-01-04T08:49:45.781Z,1011.33
2023-01-04T08:50:45.742Z,1011.29
2023-01-04T08:51:45.761Z,1011.30
2023-01-04T08:52:45.722Z,1011.31
2023-01-04T08:53:45.712Z,1011.31
2023-01-04T08:54:45.716Z,1011.25
2023-01-04T08:55:45.689Z,1011.28
2023-01-04T08:56:45.721Z,1011.33
2023-01-04T08:57:45.691Z,1011.20
2023-01-04T08:58:45.660Z,1011.25
2023-01-04T08:59:45.663Z,1011.20
2023-01-04T09:00:45.636Z,1011.23
2023-01-04T09:01:45.721Z,1011.25
2023-01-04T09:02:45.823Z,1011.25
2023-01-04T09:03:45.616Z,1011.28
2023-01-04T09:04:45.704Z,1011.31
2023-01-04T09:05:45.581Z,1011.36
2023-01-04T09:06:45.570Z,1011.34
2023-01-04T09:07:45.610Z,1011.32
2023-01-04T09:08:45.549Z,1011.29
2023-01-04T09:09:45.549Z,1011.29
2023-01-04T09:10:45.529Z,1011.26
2023-01-04T09:11:45.516Z,1011.37
2023-01-04T09:12:45.515Z,1011.29
2023-01-04T09:13:45.500Z,1011.28
2023-01-04T09:14:45.508Z,1011.27
2023-01-04T09:15:45.528Z,1011.28
2023-01-04T09:16:45.517Z,1011.22
2023-01-04T09:18:05.150Z,1011.21
2023-01-04T09:18:46.436Z,1011.24
2023-01-04T09:19:45.441Z,1011.21
2023-01-04T09:20:45.418Z,1011.16
2023-01-04T09:21:45.505Z,1011.14
2023-01-04T09:22:45.567Z,1011.09
2023-01-04T09:23:45.411Z,1011.09
2023-01-04T09:24:45.447Z,1011.08
2023-01-04T09:25:45.376Z,1011.02
2023-01-04T09:26:45.360Z,1011.01
2023-01-04T09:27:45.370Z,1011.02
2023-01-04T09:28:45.347Z,1010.93
2023-01-04T09:29:45.346Z,1010.94
2023-01-04T09:30:45.308Z,1010.90
2023-01-04T09:31:45.393Z,1010.86
2023-01-04T09:32:45.295Z,1010.84
2023-01-04T09:34:13.576Z,1010.87
2023-01-04T09:34:46.283Z,1010.87
2023-01-04T09:35:45.261Z,1010.83
2023-01-04T09:36:45.252Z,1010.81
2023-01-04T09:37:45.244Z,1010.72
2023-01-04T09:38:45.228Z,1010.71
2023-01-04T09:39:45.243Z,1010.71
2023-01-04T09:40:45.202Z,1010.67
2023-01-04T09:41:45.196Z,1010.69
2023-01-04T09:42:45.179Z,1010.61
2023-01-04T09:43:45.170Z,1010.67
2023-01-04T09:45:46.185Z,1010.65
2023-01-04T09:46:45.345Z,1010.53
2023-01-04T09:47:45.133Z,1010.55
2023-01-04T09:48:45.152Z,1010.45
2023-01-04T09:49:45.112Z,1010.36
2023-01-04T09:50:45.110Z,1010.53
2023-01-04T09:51:45.086Z,1010.46
2023-01-04T09:52:45.073Z,1010.43
2023-01-04T09:53:45.066Z,1010.28
2023-01-04T09:54:45.054Z,1010.34
2023-01-04T09:55:45.087Z,1010.27
2023-01-04T09:56:45.030Z,1010.36
2023-01-04T09:57:45.024Z,1010.34
2023-01-04T09:58:45.035Z,1010.31
2023-01-04T09:59:44.997Z,1010.27
2023-01-04T10:00:45.058Z,1010.27
2023-01-04T10:01:45.181Z,1010.24
2023-01-04T10:02:45.186Z,1010.22
2023-01-04T10:03:44.993Z,1010.22
2023-01-04T10:04:44.945Z,1010.19
2023-01-04T10:05:44.975Z,1010.23
2023-01-04T10:06:44.930Z,1010.05
2023-01-04T10:07:44.919Z,1010.14
2023-01-04T10:08:44.919Z,1010.06
2023-01-04T10:09:44.896Z,1010.05
2023-01-04T10:10:44.891Z,1009.99
2023-01-04T10:11:44.887Z,1010.01
2023-01-04T10:12:44.859Z,1010.03
2023-01-04T10:13:44.849Z,1010.10
2023-01-04T10:14:44.841Z,1009.96
2023-01-04T10:15:44.852Z,1009.84
2023-01-04T10:17:11.785Z,1009.88
2023-01-04T10:19:23.595Z,1009.86
2023-01-04T10:21:45.814Z,1009.78
2023-01-04T10:22:44.754Z,1009.76
2023-01-04T10:23:44.745Z,1009.75
2023-01-04T10:24:44.753Z,1009.69
2023-01-04T10:25:44.733Z,1009.68
2023-01-04T10:26:44.706Z,1009.58
2023-01-04T10:27:44.720Z,1009.62
2023-01-04T10:28:44.702Z,1009.60
2023-01-04T10:29:44.687Z,1009.53
2023-01-04T10:30:44.680Z,1009.59
2023-01-04T10:31:44.708Z,1009.60
2023-01-04T10:32:44.645Z,1009.54
2023-01-04T10:33:44.634Z,1009.51
2023-01-04T10:34:44.618Z,1009.45
2023-01-04T10:35:44.633Z,1009.50
2023-01-04T10:36:44.600Z,1009.50
2023-01-04T10:37:44.588Z,1009.45
2023-01-04T10:38:44.581Z,1009.40
2023-01-04T10:39:44.572Z,1009.41
2023-01-04T10:40:44.569Z,1009.47
2023-01-04T10:41:44.544Z,1009.40
2023-01-04T10:42:44.532Z,1009.38
2023-01-04T10:44:12.154Z,1009.34
2023-01-04T10:44:45.509Z,1009.31
2023-01-04T10:45:44.515Z,1009.29
2023-01-04T10:46:44.552Z,1009.28
2023-01-04T10:47:44.487Z,1009.21
2023-01-04T10:48:44.469Z,1009.14
2023-01-04T10:49:44.461Z,1009.25
2023-01-04T10:50:44.467Z,1009.23
2023-01-04T10:51:44.445Z,1009.13
2023-01-04T10:52:44.432Z,1009.09
2023-01-04T10:53:44.420Z,1009.06
2023-01-04T10:54:44.417Z,1009.13
2023-01-04T10:56:24.211Z,1009.05
2023-01-04T10:56:45.387Z,1009.11
2023-01-04T10:57:44.381Z,1009.07
2023-01-04T10:58:44.369Z,1009.01
2023-01-04T10:59:44.371Z,1009.01
2023-01-04T11:00:44.417Z,1008.94
2023-01-04T11:01:44.618Z,1009.00
2023-01-04T11:02:44.524Z,1008.98
2023-01-04T11:03:44.344Z,1008.99
2023-01-04T11:04:44.301Z,1008.95
2023-01-04T11:05:44.304Z,1008.91
2023-01-04T11:06:44.280Z,1008.89
2023-01-04T11:07:44.275Z,1008.79
2023-01-04T11:08:44.263Z,1008.85
2023-01-04T11:09:44.246Z,1008.73
2023-01-04T11:10:44.253Z,1008.79
2023-01-04T11:11:44.224Z,1008.75
2023-01-04T11:12:44.212Z,1008.68
2023-01-04T11:13:44.199Z,1008.68
2023-01-04T11:14:44.195Z,1008.68
2023-01-04T11:15:44.210Z,1008.67
2023-01-04T11:16:44.265Z,1008.66
2023-01-04T11:17:44.166Z,1008.64
2023-01-04T11:18:44.145Z,1008.61
2023-01-04T11:19:44.137Z,1008.65
2023-01-04T11:20:44.137Z,1008.56
2023-01-04T11:21:44.122Z,1008.47
2023-01-04T11:22:44.182Z,1008.47
2023-01-04T11:23:44.091Z,1008.45
2023-01-04T11:25:00.453Z,1008.43
2023-01-04T11:25:46.905Z,1008.42
2023-01-04T11:26:45.078Z,1008.43
2023-01-04T11:27:44.070Z,1008.40
2023-01-04T11:28:44.037Z,1008.50
2023-01-04T11:29:44.027Z,1008.45
2023-01-04T11:30:44.028Z,1008.37
2023-01-04T11:31:44.092Z,1008.42
2023-01-04T11:32:43.992Z,1008.50
2023-01-04T11:33:43.981Z,1008.37
2023-01-04T11:34:44.004Z,1008.37
2023-01-04T11:35:43.971Z,1008.36
2023-01-04T11:36:43.955Z,1008.31
2023-01-04T11:37:43.940Z,1008.38
2023-01-04T11:38:43.925Z,1008.31
2023-01-04T11:39:43.920Z,1008.28
2023-01-04T11:40:43.925Z,1008.28
2023-01-04T11:41:43.895Z,1008.29
2023-01-04T11:42:43.883Z,1008.27
2023-01-04T11:43:43.880Z,1008.24
2023-01-04T11:44:43.865Z,1008.25
2023-01-04T11:45:43.877Z,1008.26
2023-01-04T11:46:43.854Z,1008.25
2023-01-04T11:47:43.858Z,1008.17
2023-01-04T11:48:43.824Z,1008.23
2023-01-04T11:49:43.824Z,1008.21
2023-01-04T11:50:43.799Z,1008.11
2023-01-04T11:51:43.801Z,1008.14
2023-01-04T11:52:43.778Z,1008.12
2023-01-04T11:53:43.770Z,1008.11
2023-01-04T11:54:43.752Z,1008.06
2023-01-04T11:55:43.743Z,1008.10
2023-01-04T11:56:43.743Z,1008.08
2023-01-04T11:57:43.726Z,1008.04
2023-01-04T11:58:43.720Z,1008.03
2023-01-04T11:59:43.701Z,1008.00
2023-01-04T12:00:43.684Z,1007.99
2023-01-04T12:01:43.742Z,1007.93
2023-01-04T12:03:12.639Z,1007.91
2023-01-04T12:03:44.673Z,1007.93
2023-01-04T12:04:43.645Z,1007.87
2023-01-04T12:05:43.633Z,1007.87
2023-01-04T12:06:43.633Z,1007.84
2023-01-04T12:07:43.609Z,1007.78
2023-01-04T12:08:43.606Z,1007.76
2023-01-04T12:09:43.633Z,1007.77